sensor_id;sensor_type;location;lat;lon;timestamp;P1;durP1;ratioP1;P2;durP2;ratioP2
47659;SDS011;33403;43.608;1.458;2023-02-08T00:00:31;18.57;;;4.80;;
47659;SDS011;33403;43.608;1.458;2023-02-08T00:02:57;11.63;;;4.97;;
47659;SDS011;33403;43.608;1.458;2023-02-08T00:05:23;11.67;;;4.97;;
47659;SDS011;33403;43.608;1.458;2023-02-08T00:07:49;11.83;;;4.30;;
47659;SDS011;33403;43.608;1.458;2023-02-08T00:10:15;9.47;;;4.50;;
47659;SDS011;33403;43.608;1.458;2023-02-08T00:12:41;11.43;;;4.40;;
47659;SDS011;33403;43.608;1.458;2023-02-08T00:15:08;11.03;;;4.07;;
47659;SDS011;33403;43.608;1.458;2023-02-08T00:17:34;16.50;;;4.90;;
47659;SDS011;33403;43.608;1.458;2023-02-08T00:20:00;11.63;;;4.63;;
47659;SDS011;33403;43.608;1.458;2023-02-08T00:22:26;11.80;;;5.00;;
47659;SDS011;33403;43.608;1.458;2023-02-08T00:24:52;12.87;;;6.23;;
47659;SDS011;33403;43.608;1.458;2023-02-08T00:27:18;15.37;;;5.23;;
47659;SDS011;33403;43.608;1.458;2023-02-08T00:29:45;14.30;;;6.83;;
47659;SDS011;33403;43.608;1.458;2023-02-08T00:32:11;13.67;;;4.73;;
47659;SDS011;33403;43.608;1.458;2023-02-08T00:34:37;10.30;;;4.67;;
47659;SDS011;33403;43.608;1.458;2023-02-08T00:37:05;13.43;;;4.80;;
47659;SDS011;33403;43.608;1.458;2023-02-08T00:39:31;6.57;;;3.90;;
47659;SDS011;33403;43.608;1.458;2023-02-08T00:41:57;11.60;;;4.73;;
47659;SDS011;33403;43.608;1.458;2023-02-08T00:44:23;9.70;;;4.53;;
47659;SDS011;33403;43.608;1.458;2023-02-08T00:46:49;11.43;;;4.50;;
47659;SDS011;33403;43.608;1.458;2023-02-08T00:49:15;7.93;;;4.30;;
47659;SDS011;33403;43.608;1.458;2023-02-08T00:51:41;8.30;;;4.27;;
47659;SDS011;33403;43.608;1.458;2023-02-08T00:54:11;11.23;;;4.60;;
47659;SDS011;33403;43.608;1.458;2023-02-08T00:56:38;12.63;;;4.53;;
47659;SDS011;33403;43.608;1.458;2023-02-08T00:59:04;9.83;;;4.80;;
47659;SDS011;33403;43.608;1.458;2023-02-08T01:01:30;11.80;;;4.80;;
47659;SDS011;33403;43.608;1.458;2023-02-08T01:03:56;10.17;;;4.50;;
47659;SDS011;33403;43.608;1.458;2023-02-08T01:06:22;9.07;;;4.10;;
47659;SDS011;33403;43.608;1.458;2023-02-08T01:08:48;7.40;;;4.60;;
47659;SDS011;33403;43.608;1.458;2023-02-08T01:11:15;10.37;;;4.57;;
47659;SDS011;33403;43.608;1.458;2023-02-08T01:13:42;11.47;;;4.70;;
47659;SDS011;33403;43.608;1.458;2023-02-08T01:16:16;9.87;;;4.63;;
47659;SDS011;33403;43.608;1.458;2023-02-08T01:18:43;11.00;;;4.37;;
47659;SDS011;33403;43.608;1.458;2023-02-08T01:21:11;12.43;;;5.00;;
47659;SDS011;33403;43.608;1.458;2023-02-08T01:23:38;12.00;;;4.37;;
47659;SDS011;33403;43.608;1.458;2023-02-08T01:26:04;11.43;;;4.53;;
47659;SDS011;33403;43.608;1.458;2023-02-08T01:28:30;10.97;;;4.87;;
47659;SDS011;33403;43.608;1.458;2023-02-08T01:30:57;9.63;;;4.70;;
47659;SDS011;33403;43.608;1.458;2023-02-08T01:33:23;13.60;;;5.03;;
47659;SDS011;33403;43.608;1.458;2023-02-08T01:35:49;12.73;;;4.63;;
47659;SDS011;33403;43.608;1.458;2023-02-08T01:38:16;9.90;;;4.40;;
47659;SDS011;33403;43.608;1.458;2023-02-08T01:40:42;11.00;;;4.30;;
47659;SDS011;33403;43.608;1.458;2023-02-08T01:43:19;10.43;;;4.63;;
47659;SDS011;33403;43.608;1.458;2023-02-08T01:45:45;8.60;;;4.50;;
47659;SDS011;33403;43.608;1.458;2023-02-08T01:48:12;8.90;;;4.40;;
47659;SDS011;33403;43.608;1.458;2023-02-08T01:53:19;9.07;;;4.93;;
47659;SDS011;33403;43.608;1.458;2023-02-08T01:55:46;11.03;;;4.40;;
47659;SDS011;33403;43.608;1.458;2023-02-08T01:58:13;7.70;;;4.33;;
47659;SDS011;33403;43.608;1.458;2023-02-08T02:00:40;7.90;;;4.47;;
47659;SDS011;33403;43.608;1.458;2023-02-08T02:03:06;11.37;;;4.70;;
47659;SDS011;33403;43.608;1.458;2023-02-08T02:05:43;9.13;;;4.67;;
47659;SDS011;33403;43.608;1.458;2023-02-08T02:08:10;8.87;;;4.83;;
47659;SDS011;33403;43.608;1.458;2023-02-08T02:10:37;8.80;;;4.87;;
47659;SDS011;33403;43.608;1.458;2023-02-08T02:13:07;8.60;;;4.93;;
47659;SDS011;33403;43.608;1.458;2023-02-08T02:15:34;11.93;;;5.00;;
47659;SDS011;33403;43.608;1.458;2023-02-08T02:18:00;7.57;;;4.67;;
47659;SDS011;33403;43.608;1.458;2023-02-08T02:21:14;10.17;;;4.97;;
47659;SDS011;33403;43.608;1.458;2023-02-08T02:28:35;8.00;;;5.20;;
47659;SDS011;33403;43.608;1.458;2023-02-08T02:39:12;10.37;;;5.27;;
47659;SDS011;33403;43.608;1.458;2023-02-08T02:42:27;10.50;;;5.07;;
47659;SDS011;33403;43.608;1.458;2023-02-08T02:49:48;8.10;;;5.00;;
47659;SDS011;33403;43.608;1.458;2023-02-08T02:52:16;10.30;;;5.60;;
47659;SDS011;33403;43.608;1.458;2023-02-08T02:54:51;9.50;;;5.33;;
47659;SDS011;33403;43.608;1.458;2023-02-08T02:57:23;11.90;;;5.23;;
47659;SDS011;33403;43.608;1.458;2023-02-08T02:59:51;9.87;;;5.53;;
47659;SDS011;33403;43.608;1.458;2023-02-08T03:02:17;8.53;;;5.30;;
47659;SDS011;33403;43.608;1.458;2023-02-08T03:04:51;8.10;;;5.10;;
47659;SDS011;33403;43.608;1.458;2023-02-08T03:17:38;11.43;;;5.37;;
47659;SDS011;33403;43.608;1.458;2023-02-08T03:20:14;10.40;;;6.00;;
47659;SDS011;33403;43.608;1.458;2023-02-08T03:25:20;11.67;;;5.20;;
47659;SDS011;33403;43.608;1.458;2023-02-08T03:27:54;7.33;;;4.90;;
47659;SDS011;33403;43.608;1.458;2023-02-08T03:30:31;9.53;;;5.03;;
47659;SDS011;33403;43.608;1.458;2023-02-08T03:33:00;11.27;;;5.23;;
47659;SDS011;33403;43.608;1.458;2023-02-08T03:35:37;7.67;;;5.20;;
47659;SDS011;33403;43.608;1.458;2023-02-08T03:38:14;10.53;;;5.53;;
47659;SDS011;33403;43.608;1.458;2023-02-08T03:40:43;8.83;;;5.47;;
47659;SDS011;33403;43.608;1.458;2023-02-08T03:43:11;8.87;;;5.13;;
47659;SDS011;33403;43.608;1.458;2023-02-08T03:45:41;13.53;;;5.77;;
47659;SDS011;33403;43.608;1.458;2023-02-08T03:51:13;12.00;;;5.70;;
47659;SDS011;33403;43.608;1.458;2023-02-08T03:53:40;11.23;;;5.57;;
47659;SDS011;33403;43.608;1.458;2023-02-08T03:56:09;8.73;;;5.17;;
47659;SDS011;33403;43.608;1.458;2023-02-08T03:58:38;9.17;;;5.77;;
47659;SDS011;33403;43.608;1.458;2023-02-08T04:01:07;8.57;;;5.60;;
47659;SDS011;33403;43.608;1.458;2023-02-08T04:03:35;11.20;;;6.07;;
47659;SDS011;33403;43.608;1.458;2023-02-08T04:06:02;10.67;;;5.60;;
47659;SDS011;33403;43.608;1.458;2023-02-08T04:08:28;10.80;;;5.30;;
47659;SDS011;33403;43.608;1.458;2023-02-08T04:10:54;10.73;;;5.20;;
47659;SDS011;33403;43.608;1.458;2023-02-08T04:13:20;7.50;;;5.20;;
47659;SDS011;33403;43.608;1.458;2023-02-08T04:15:46;7.83;;;5.27;;
47659;SDS011;33403;43.608;1.458;2023-02-08T04:18:12;9.60;;;5.63;;
47659;SDS011;33403;43.608;1.458;2023-02-08T04:20:38;8.50;;;5.43;;
47659;SDS011;33403;43.608;1.458;2023-02-08T04:23:04;9.20;;;5.43;;
47659;SDS011;33403;43.608;1.458;2023-02-08T04:25:30;8.73;;;5.30;;
47659;SDS011;33403;43.608;1.458;2023-02-08T04:27:56;10.37;;;5.13;;
47659;SDS011;33403;43.608;1.458;2023-02-08T04:30:23;8.30;;;4.90;;
47659;SDS011;33403;43.608;1.458;2023-02-08T04:32:49;8.77;;;5.03;;
47659;SDS011;33403;43.608;1.458;2023-02-08T04:35:15;8.90;;;5.13;;
47659;SDS011;33403;43.608;1.458;2023-02-08T04:37:41;9.37;;;5.07;;
47659;SDS011;33403;43.608;1.458;2023-02-08T04:40:07;9.73;;;5.60;;
47659;SDS011;33403;43.608;1.458;2023-02-08T04:42:33;12.37;;;5.93;;
47659;SDS011;33403;43.608;1.458;2023-02-08T04:44:59;10.57;;;5.10;;
47659;SDS011;33403;43.608;1.458;2023-02-08T04:47:25;8.87;;;5.17;;
47659;SDS011;33403;43.608;1.458;2023-02-08T04:49:51;9.33;;;5.17;;
47659;SDS011;33403;43.608;1.458;2023-02-08T04:52:17;12.60;;;5.30;;
47659;SDS011;33403;43.608;1.458;2023-02-08T04:54:43;11.30;;;5.40;;
47659;SDS011;33403;43.608;1.458;2023-02-08T04:57:13;8.13;;;4.90;;
47659;SDS011;33403;43.608;1.458;2023-02-08T04:59:39;9.67;;;5.53;;
47659;SDS011;33403;43.608;1.458;2023-02-08T05:02:05;8.93;;;5.13;;
47659;SDS011;33403;43.608;1.458;2023-02-08T05:04:31;9.10;;;5.00;;
47659;SDS011;33403;43.608;1.458;2023-02-08T05:06:57;8.83;;;5.10;;
47659;SDS011;33403;43.608;1.458;2023-02-08T05:09:23;9.37;;;5.30;;
47659;SDS011;33403;43.608;1.458;2023-02-08T05:11:49;8.30;;;5.03;;
47659;SDS011;33403;43.608;1.458;2023-02-08T05:14:15;11.17;;;5.90;;
47659;SDS011;33403;43.608;1.458;2023-02-08T05:16:41;9.70;;;5.10;;
47659;SDS011;33403;43.608;1.458;2023-02-08T05:19:08;10.23;;;5.70;;
47659;SDS011;33403;43.608;1.458;2023-02-08T05:21:34;9.83;;;5.20;;
47659;SDS011;33403;43.608;1.458;2023-02-08T05:24:00;10.90;;;5.87;;
47659;SDS011;33403;43.608;1.458;2023-02-08T05:26:26;12.53;;;5.40;;
47659;SDS011;33403;43.608;1.458;2023-02-08T05:28:53;9.53;;;5.00;;
47659;SDS011;33403;43.608;1.458;2023-02-08T05:31:20;10.23;;;5.53;;
47659;SDS011;33403;43.608;1.458;2023-02-08T05:33:47;12.43;;;5.10;;
47659;SDS011;33403;43.608;1.458;2023-02-08T05:36:13;8.87;;;5.80;;
47659;SDS011;33403;43.608;1.458;2023-02-08T05:38:39;12.00;;;5.63;;
47659;SDS011;33403;43.608;1.458;2023-02-08T05:41:05;11.53;;;5.30;;
47659;SDS011;33403;43.608;1.458;2023-02-08T05:43:31;14.73;;;6.00;;
47659;SDS011;33403;43.608;1.458;2023-02-08T05:45:57;9.67;;;5.20;;
47659;SDS011;33403;43.608;1.458;2023-02-08T05:48:23;9.20;;;5.23;;
47659;SDS011;33403;43.608;1.458;2023-02-08T05:50:49;10.53;;;5.20;;
47659;SDS011;33403;43.608;1.458;2023-02-08T05:53:15;10.30;;;5.47;;
47659;SDS011;33403;43.608;1.458;2023-02-08T05:55:45;10.10;;;5.30;;
47659;SDS011;33403;43.608;1.458;2023-02-08T05:58:12;10.43;;;5.20;;
47659;SDS011;33403;43.608;1.458;2023-02-08T06:00:39;10.97;;;5.50;;
47659;SDS011;33403;43.608;1.458;2023-02-08T06:03:05;8.73;;;5.63;;
47659;SDS011;33403;43.608;1.458;2023-02-08T06:05:31;10.27;;;5.30;;
47659;SDS011;33403;43.608;1.458;2023-02-08T06:07:57;9.13;;;5.17;;
47659;SDS011;33403;43.608;1.458;2023-02-08T06:10:23;10.70;;;5.53;;
47659;SDS011;33403;43.608;1.458;2023-02-08T06:12:49;9.73;;;5.50;;
47659;SDS011;33403;43.608;1.458;2023-02-08T06:15:15;11.30;;;5.90;;
47659;SDS011;33403;43.608;1.458;2023-02-08T06:17:41;9.37;;;5.17;;
47659;SDS011;33403;43.608;1.458;2023-02-08T06:20:07;7.93;;;5.63;;
47659;SDS011;33403;43.608;1.458;2023-02-08T06:22:33;12.10;;;6.00;;
47659;SDS011;33403;43.608;1.458;2023-02-08T06:25:00;8.63;;;5.90;;
47659;SDS011;33403;43.608;1.458;2023-02-08T06:27:26;10.93;;;5.80;;
47659;SDS011;33403;43.608;1.458;2023-02-08T06:29:52;9.83;;;6.10;;
47659;SDS011;33403;43.608;1.458;2023-02-08T06:32:18;11.37;;;6.03;;
47659;SDS011;33403;43.608;1.458;2023-02-08T06:34:44;10.07;;;6.00;;
47659;SDS011;33403;43.608;1.458;2023-02-08T06:37:10;9.53;;;5.60;;
47659;SDS011;33403;43.608;1.458;2023-02-08T06:39:36;12.00;;;6.07;;
47659;SDS011;33403;43.608;1.458;2023-02-08T06:42:02;13.53;;;6.60;;
47659;SDS011;33403;43.608;1.458;2023-02-08T06:44:28;11.67;;;7.30;;
47659;SDS011;33403;43.608;1.458;2023-02-08T06:46:54;11.20;;;6.40;;
47659;SDS011;33403;43.608;1.458;2023-02-08T06:49:20;12.63;;;6.47;;
47659;SDS011;33403;43.608;1.458;2023-02-08T06:51:46;11.83;;;6.47;;
47659;SDS011;33403;43.608;1.458;2023-02-08T06:54:12;10.03;;;6.23;;
47659;SDS011;33403;43.608;1.458;2023-02-08T06:56:39;12.30;;;6.80;;
47659;SDS011;33403;43.608;1.458;2023-02-08T06:59:05;14.00;;;6.97;;
47659;SDS011;33403;43.608;1.458;2023-02-08T07:01:31;12.23;;;7.33;;
47659;SDS011;33403;43.608;1.458;2023-02-08T07:03:58;15.10;;;6.83;;
47659;SDS011;33403;43.608;1.458;2023-02-08T07:06:24;13.77;;;6.70;;
47659;SDS011;33403;43.608;1.458;2023-02-08T07:08:50;12.07;;;6.77;;
47659;SDS011;33403;43.608;1.458;2023-02-08T07:11:17;11.80;;;7.13;;
47659;SDS011;33403;43.608;1.458;2023-02-08T07:13:47;13.97;;;6.90;;
47659;SDS011;33403;43.608;1.458;2023-02-08T07:16:14;14.00;;;7.83;;
47659;SDS011;33403;43.608;1.458;2023-02-08T07:18:40;20.27;;;7.53;;
47659;SDS011;33403;43.608;1.458;2023-02-08T07:21:06;11.77;;;7.50;;
47659;SDS011;33403;43.608;1.458;2023-02-08T07:23:34;13.70;;;7.67;;
47659;SDS011;33403;43.608;1.458;2023-02-08T07:26:02;13.87;;;7.53;;
47659;SDS011;33403;43.608;1.458;2023-02-08T07:28:28;12.13;;;7.37;;
47659;SDS011;33403;43.608;1.458;2023-02-08T07:30:54;13.40;;;7.50;;
47659;SDS011;33403;43.608;1.458;2023-02-08T07:33:20;14.93;;;8.73;;
47659;SDS011;33403;43.608;1.458;2023-02-08T07:35:47;15.10;;;7.57;;
47659;SDS011;33403;43.608;1.458;2023-02-08T07:38:13;17.20;;;7.50;;
47659;SDS011;33403;43.608;1.458;2023-02-08T07:40:39;13.87;;;7.93;;
47659;SDS011;33403;43.608;1.458;2023-02-08T07:43:05;17.67;;;7.33;;
47659;SDS011;33403;43.608;1.458;2023-02-08T07:45:31;14.27;;;7.57;;
47659;SDS011;33403;43.608;1.458;2023-02-08T07:47:57;12.83;;;7.83;;
47659;SDS011;33403;43.608;1.458;2023-02-08T07:50:24;11.17;;;7.80;;
47659;SDS011;33403;43.608;1.458;2023-02-08T07:52:50;13.23;;;7.90;;
47659;SDS011;33403;43.608;1.458;2023-02-08T07:55:16;17.33;;;8.23;;
47659;SDS011;33403;43.608;1.458;2023-02-08T07:57:43;15.30;;;8.53;;
47659;SDS011;33403;43.608;1.458;2023-02-08T08:00:09;13.70;;;8.27;;
47659;SDS011;33403;43.608;1.458;2023-02-08T08:02:35;12.57;;;8.30;;
47659;SDS011;33403;43.608;1.458;2023-02-08T08:05:02;13.73;;;8.70;;
47659;SDS011;33403;43.608;1.458;2023-02-08T08:07:28;14.07;;;8.30;;
47659;SDS011;33403;43.608;1.458;2023-02-08T08:09:54;14.87;;;8.60;;
47659;SDS011;33403;43.608;1.458;2023-02-08T08:12:20;12.50;;;7.87;;
47659;SDS011;33403;43.608;1.458;2023-02-08T08:14:48;14.50;;;8.83;;
47659;SDS011;33403;43.608;1.458;2023-02-08T08:17:14;15.30;;;9.07;;
47659;SDS011;33403;43.608;1.458;2023-02-08T08:19:40;14.57;;;8.50;;
47659;SDS011;33403;43.608;1.458;2023-02-08T08:22:06;15.37;;;8.33;;
47659;SDS011;33403;43.608;1.458;2023-02-08T08:24:32;13.60;;;8.83;;
47659;SDS011;33403;43.608;1.458;2023-02-08T08:27:02;15.00;;;8.73;;
47659;SDS011;33403;43.608;1.458;2023-02-08T08:29:32;13.80;;;8.97;;
47659;SDS011;33403;43.608;1.458;2023-02-08T08:31:58;15.37;;;9.50;;
47659;SDS011;33403;43.608;1.458;2023-02-08T08:34:24;14.83;;;9.80;;
47659;SDS011;33403;43.608;1.458;2023-02-08T08:36:57;13.83;;;10.20;;
47659;SDS011;33403;43.608;1.458;2023-02-08T08:39:23;15.50;;;9.63;;
47659;SDS011;33403;43.608;1.458;2023-02-08T08:41:51;18.00;;;9.93;;
47659;SDS011;33403;43.608;1.458;2023-02-08T08:44:17;18.63;;;9.80;;
47659;SDS011;33403;43.608;1.458;2023-02-08T08:46:43;16.53;;;9.13;;
47659;SDS011;33403;43.608;1.458;2023-02-08T08:49:09;18.67;;;10.00;;
47659;SDS011;33403;43.608;1.458;2023-02-08T08:51:35;15.23;;;9.17;;
47659;SDS011;33403;43.608;1.458;2023-02-08T08:54:01;14.97;;;8.73;;
47659;SDS011;33403;43.608;1.458;2023-02-08T08:56:28;15.63;;;9.40;;
47659;SDS011;33403;43.608;1.458;2023-02-08T08:58:54;17.20;;;9.47;;
47659;SDS011;33403;43.608;1.458;2023-02-08T09:01:20;20.87;;;11.80;;
47659;SDS011;33403;43.608;1.458;2023-02-08T09:03:46;16.27;;;10.63;;
47659;SDS011;33403;43.608;1.458;2023-02-08T09:06:12;20.07;;;11.13;;
47659;SDS011;33403;43.608;1.458;2023-02-08T09:08:38;20.03;;;11.67;;
47659;SDS011;33403;43.608;1.458;2023-02-08T09:11:05;24.30;;;11.87;;
47659;SDS011;33403;43.608;1.458;2023-02-08T09:13:31;22.83;;;11.67;;
47659;SDS011;33403;43.608;1.458;2023-02-08T09:15:57;18.97;;;10.77;;
47659;SDS011;33403;43.608;1.458;2023-02-08T09:18:23;18.27;;;10.30;;
47659;SDS011;33403;43.608;1.458;2023-02-08T09:20:49;17.10;;;9.80;;
47659;SDS011;33403;43.608;1.458;2023-02-08T09:23:15;17.40;;;9.87;;
47659;SDS011;33403;43.608;1.458;2023-02-08T09:25:41;17.63;;;9.43;;
47659;SDS011;33403;43.608;1.458;2023-02-08T09:28:07;19.77;;;9.90;;
47659;SDS011;33403;43.608;1.458;2023-02-08T09:30:33;16.03;;;9.60;;
47659;SDS011;33403;43.608;1.458;2023-02-08T09:32:59;16.23;;;9.70;;
47659;SDS011;33403;43.608;1.458;2023-02-08T09:35:25;18.90;;;10.50;;
47659;SDS011;33403;43.608;1.458;2023-02-08T09:37:52;19.83;;;10.00;;
47659;SDS011;33403;43.608;1.458;2023-02-08T09:40:26;19.97;;;10.30;;
47659;SDS011;33403;43.608;1.458;2023-02-08T09:45:31;20.33;;;11.17;;
47659;SDS011;33403;43.608;1.458;2023-02-08T09:48:17;17.07;;;10.27;;
47659;SDS011;33403;43.608;1.458;2023-02-08T09:50:45;17.57;;;9.93;;
47659;SDS011;33403;43.608;1.458;2023-02-08T09:55:41;20.83;;;10.83;;
47659;SDS011;33403;43.608;1.458;2023-02-08T09:58:16;20.17;;;10.80;;
47659;SDS011;33403;43.608;1.458;2023-02-08T10:00:42;17.10;;;10.67;;
47659;SDS011;33403;43.608;1.458;2023-02-08T10:03:54;17.20;;;10.83;;
47659;SDS011;33403;43.608;1.458;2023-02-08T10:06:00;20.60;;;11.13;;
47659;SDS011;33403;43.608;1.458;2023-02-08T10:08:27;16.63;;;10.37;;
47659;SDS011;33403;43.608;1.458;2023-02-08T10:10:54;19.17;;;11.03;;
47659;SDS011;33403;43.608;1.458;2023-02-08T10:15:56;18.50;;;11.10;;
47659;SDS011;33403;43.608;1.458;2023-02-08T10:21:13;18.40;;;10.40;;
47659;SDS011;33403;43.608;1.458;2023-02-08T10:26:33;20.03;;;10.40;;
47659;SDS011;33403;43.608;1.458;2023-02-08T10:34:00;18.33;;;10.37;;
47659;SDS011;33403;43.608;1.458;2023-02-08T10:36:28;20.23;;;10.47;;
47659;SDS011;33403;43.608;1.458;2023-02-08T10:38:56;16.37;;;10.00;;
47659;SDS011;33403;43.608;1.458;2023-02-08T10:41:28;19.67;;;10.60;;
47659;SDS011;33403;43.608;1.458;2023-02-08T10:46:37;18.43;;;11.00;;
47659;SDS011;33403;43.608;1.458;2023-02-08T10:49:20;16.03;;;10.50;;
47659;SDS011;33403;43.608;1.458;2023-02-08T10:51:47;18.20;;;10.20;;
47659;SDS011;33403;43.608;1.458;2023-02-08T10:54:14;18.80;;;11.03;;
47659;SDS011;33403;43.608;1.458;2023-02-08T10:56:51;17.63;;;10.40;;
47659;SDS011;33403;43.608;1.458;2023-02-08T10:59:35;18.20;;;10.77;;
47659;SDS011;33403;43.608;1.458;2023-02-08T11:02:20;17.60;;;11.00;;
47659;SDS011;33403;43.608;1.458;2023-02-08T11:07:29;18.37;;;11.13;;
47659;SDS011;33403;43.608;1.458;2023-02-08T11:12:40;19.57;;;11.10;;
47659;SDS011;33403;43.608;1.458;2023-02-08T11:15:20;23.17;;;11.13;;
47659;SDS011;33403;43.608;1.458;2023-02-08T11:17:46;17.37;;;9.93;;
47659;SDS011;33403;43.608;1.458;2023-02-08T11:20:23;15.40;;;9.40;;
47659;SDS011;33403;43.608;1.458;2023-02-08T11:22:51;14.77;;;9.03;;
47659;SDS011;33403;43.608;1.458;2023-02-08T11:25:30;16.57;;;9.20;;
47659;SDS011;33403;43.608;1.458;2023-02-08T11:27:57;16.30;;;8.67;;
47659;SDS011;33403;43.608;1.458;2023-02-08T11:30:24;17.20;;;9.43;;
47659;SDS011;33403;43.608;1.458;2023-02-08T11:33:13;12.20;;;8.20;;
47659;SDS011;33403;43.608;1.458;2023-02-08T11:35:37;13.00;;;8.30;;
47659;SDS011;33403;43.608;1.458;2023-02-08T11:38:03;15.50;;;7.67;;
47659;SDS011;33403;43.608;1.458;2023-02-08T11:42:55;12.97;;;7.40;;
47659;SDS011;33403;43.608;1.458;2023-02-08T11:45:22;13.57;;;7.93;;
47659;SDS011;33403;43.608;1.458;2023-02-08T11:47:49;12.30;;;7.43;;
47659;SDS011;33403;43.608;1.458;2023-02-08T11:50:35;11.27;;;7.00;;
47659;SDS011;33403;43.608;1.458;2023-02-08T11:53:47;11.37;;;7.07;;
47659;SDS011;33403;43.608;1.458;2023-02-08T11:58:36;10.57;;;6.70;;
47659;SDS011;33403;43.608;1.458;2023-02-08T12:01:25;9.60;;;6.63;;
47659;SDS011;33403;43.608;1.458;2023-02-08T12:03:49;10.30;;;6.87;;
47659;SDS011;33403;43.608;1.458;2023-02-08T12:06:19;13.53;;;6.77;;
47659;SDS011;33403;43.608;1.458;2023-02-08T12:14:03;11.33;;;6.20;;
47659;SDS011;33403;43.608;1.458;2023-02-08T12:22:15;11.63;;;5.93;;
47659;SDS011;33403;43.608;1.458;2023-02-08T12:27:19;11.20;;;6.40;;
47659;SDS011;33403;43.608;1.458;2023-02-08T12:37:55;14.83;;;8.30;;
47659;SDS011;33403;43.608;1.458;2023-02-08T12:40:54;11.83;;;8.00;;
47659;SDS011;33403;43.608;1.458;2023-02-08T12:48:25;12.13;;;7.63;;
47659;SDS011;33403;43.608;1.458;2023-02-08T12:53:21;10.03;;;5.87;;
47659;SDS011;33403;43.608;1.458;2023-02-08T12:55:54;11.13;;;5.30;;
47659;SDS011;33403;43.608;1.458;2023-02-08T12:58:27;11.10;;;5.13;;
47659;SDS011;33403;43.608;1.458;2023-02-08T13:00:55;13.53;;;5.20;;
47659;SDS011;33403;43.608;1.458;2023-02-08T13:05:50;10.10;;;5.23;;
47659;SDS011;33403;43.608;1.458;2023-02-08T13:08:40;10.17;;;4.67;;
47659;SDS011;33403;43.608;1.458;2023-02-08T13:11:14;11.03;;;4.83;;
47659;SDS011;33403;43.608;1.458;2023-02-08T13:13:42;10.60;;;4.60;;
47659;SDS011;33403;43.608;1.458;2023-02-08T13:16:12;8.82;;;4.15;;
47659;SDS011;33403;43.608;1.458;2023-02-08T13:18:42;7.93;;;4.23;;
47659;SDS011;33403;43.608;1.458;2023-02-08T13:21:16;7.97;;;4.20;;
47659;SDS011;33403;43.608;1.458;2023-02-08T13:23:45;9.23;;;4.40;;
47659;SDS011;33403;43.608;1.458;2023-02-08T13:26:13;7.40;;;3.92;;
47659;SDS011;33403;43.608;1.458;2023-02-08T13:28:40;7.47;;;3.87;;
47659;SDS011;33403;43.608;1.458;2023-02-08T13:31:10;15.30;;;4.30;;
47659;SDS011;33403;43.608;1.458;2023-02-08T13:36:20;8.90;;;4.23;;
47659;SDS011;33403;43.608;1.458;2023-02-08T13:38:48;8.20;;;4.10;;
47659;SDS011;33403;43.608;1.458;2023-02-08T13:41:16;9.03;;;4.67;;
47659;SDS011;33403;43.608;1.458;2023-02-08T13:43:45;10.13;;;4.20;;
47659;SDS011;33403;43.608;1.458;2023-02-08T13:46:11;10.03;;;3.97;;
47659;SDS011;33403;43.608;1.458;2023-02-08T13:49:11;11.87;;;4.90;;
47659;SDS011;33403;43.608;1.458;2023-02-08T13:59:49;9.77;;;4.47;;
47659;SDS011;33403;43.608;1.458;2023-02-08T14:04:40;8.67;;;4.23;;
47659;SDS011;33403;43.608;1.458;2023-02-08T14:09:40;6.43;;;4.10;;
47659;SDS011;33403;43.608;1.458;2023-02-08T14:12:11;8.93;;;4.67;;
47659;SDS011;33403;43.608;1.458;2023-02-08T14:14:38;9.33;;;4.70;;
47659;SDS011;33403;43.608;1.458;2023-02-08T14:19:43;8.53;;;4.50;;
47659;SDS011;33403;43.608;1.458;2023-02-08T14:24:44;11.23;;;4.53;;
47659;SDS011;33403;43.608;1.458;2023-02-08T14:32:36;8.27;;;4.83;;
47659;SDS011;33403;43.608;1.458;2023-02-08T14:37:38;7.73;;;4.63;;
47659;SDS011;33403;43.608;1.458;2023-02-08T14:45:37;10.47;;;4.93;;
47659;SDS011;33403;43.608;1.458;2023-02-08T14:53:53;10.87;;;5.10;;
47659;SDS011;33403;43.608;1.458;2023-02-08T14:58:50;8.87;;;4.77;;
47659;SDS011;33403;43.608;1.458;2023-02-08T15:01:19;9.90;;;4.50;;
47659;SDS011;33403;43.608;1.458;2023-02-08T15:03:49;11.70;;;4.13;;
47659;SDS011;33403;43.608;1.458;2023-02-08T15:08:42;10.82;;;4.15;;
47659;SDS011;33403;43.608;1.458;2023-02-08T15:11:23;11.40;;;4.00;;
47659;SDS011;33403;43.608;1.458;2023-02-08T15:13:51;12.33;;;4.10;;
47659;SDS011;33403;43.608;1.458;2023-02-08T15:16:18;7.73;;;3.93;;
47659;SDS011;33403;43.608;1.458;2023-02-08T15:18:45;7.57;;;3.90;;
47659;SDS011;33403;43.608;1.458;2023-02-08T15:21:14;7.73;;;3.70;;
47659;SDS011;33403;43.608;1.458;2023-02-08T15:23:41;8.60;;;4.00;;
47659;SDS011;33403;43.608;1.458;2023-02-08T15:26:20;8.57;;;4.50;;
47659;SDS011;33403;43.608;1.458;2023-02-08T15:28:47;11.70;;;4.10;;
47659;SDS011;33403;43.608;1.458;2023-02-08T15:31:13;9.07;;;3.70;;
47659;SDS011;33403;43.608;1.458;2023-02-08T15:33:41;7.77;;;3.57;;
47659;SDS011;33403;43.608;1.458;2023-02-08T15:36:13;9.63;;;3.83;;
47659;SDS011;33403;43.608;1.458;2023-02-08T15:38:41;10.10;;;3.40;;
47659;SDS011;33403;43.608;1.458;2023-02-08T15:41:10;8.87;;;4.00;;
47659;SDS011;33403;43.608;1.458;2023-02-08T15:43:36;6.23;;;3.60;;
47659;SDS011;33403;43.608;1.458;2023-02-08T15:46:04;10.87;;;3.77;;
47659;SDS011;33403;43.608;1.458;2023-02-08T15:48:31;8.98;;;3.92;;
47659;SDS011;33403;43.608;1.458;2023-02-08T15:50:58;7.30;;;3.80;;
47659;SDS011;33403;43.608;1.458;2023-02-08T15:53:24;8.88;;;4.00;;
47659;SDS011;33403;43.608;1.458;2023-02-08T15:55:53;10.80;;;3.90;;
47659;SDS011;33403;43.608;1.458;2023-02-08T15:58:28;7.82;;;4.22;;
47659;SDS011;33403;43.608;1.458;2023-02-08T16:00:56;8.45;;;4.38;;
47659;SDS011;33403;43.608;1.458;2023-02-08T16:03:23;9.40;;;4.00;;
47659;SDS011;33403;43.608;1.458;2023-02-08T16:05:50;9.93;;;4.15;;
47659;SDS011;33403;43.608;1.458;2023-02-08T16:08:22;10.47;;;4.57;;
47659;SDS011;33403;43.608;1.458;2023-02-08T16:10:51;8.13;;;3.97;;
47659;SDS011;33403;43.608;1.458;2023-02-08T16:13:22;9.23;;;4.17;;
47659;SDS011;33403;43.608;1.458;2023-02-08T16:15:53;13.10;;;3.80;;
47659;SDS011;33403;43.608;1.458;2023-02-08T16:18:33;7.50;;;3.70;;
47659;SDS011;33403;43.608;1.458;2023-02-08T16:21:01;6.20;;;3.90;;
47659;SDS011;33403;43.608;1.458;2023-02-08T16:23:28;11.73;;;4.10;;
47659;SDS011;33403;43.608;1.458;2023-02-08T16:25:55;10.67;;;4.10;;
47659;SDS011;33403;43.608;1.458;2023-02-08T16:28:26;6.70;;;4.17;;
47659;SDS011;33403;43.608;1.458;2023-02-08T16:30:54;8.53;;;3.70;;
47659;SDS011;33403;43.608;1.458;2023-02-08T16:33:20;9.40;;;4.20;;
47659;SDS011;33403;43.608;1.458;2023-02-08T16:35:47;11.93;;;4.90;;
47659;SDS011;33403;43.608;1.458;2023-02-08T16:38:16;9.00;;;3.80;;
47659;SDS011;33403;43.608;1.458;2023-02-08T16:40:49;9.63;;;4.30;;
47659;SDS011;33403;43.608;1.458;2023-02-08T16:48:36;9.97;;;4.17;;
47659;SDS011;33403;43.608;1.458;2023-02-08T16:51:03;10.73;;;4.10;;
47659;SDS011;33403;43.608;1.458;2023-02-08T16:53:30;10.40;;;4.33;;
47659;SDS011;33403;43.608;1.458;2023-02-08T16:55:56;8.43;;;4.50;;
47659;SDS011;33403;43.608;1.458;2023-02-08T16:58:23;8.20;;;4.37;;
47659;SDS011;33403;43.608;1.458;2023-02-08T17:00:49;11.80;;;4.50;;
47659;SDS011;33403;43.608;1.458;2023-02-08T17:03:15;12.57;;;4.57;;
47659;SDS011;33403;43.608;1.458;2023-02-08T17:05:41;11.97;;;4.43;;
47659;SDS011;33403;43.608;1.458;2023-02-08T17:08:10;9.77;;;3.93;;
47659;SDS011;33403;43.608;1.458;2023-02-08T17:10:37;10.83;;;5.40;;
47659;SDS011;33403;43.608;1.458;2023-02-08T17:13:03;11.43;;;4.63;;
47659;SDS011;33403;43.608;1.458;2023-02-08T17:15:29;11.77;;;5.30;;